Time;durP1;ratioP1;P1;durP2;ratioP2;P2;SDS_P1;SDS_P2;PMS_P1;PMS_P2;Temp;Humidity;BMP_temperature;BMP_pressure;BME280_temperature;BME280_humidity;BME280_pressure;Samples;Min_cycle;Max_cycle;Signal;HPM_P1;HPM_P2
2024/04/17 00:00:38;;;;;;;;;;;;;;;20.70;50.88;98279.84;5418733;26;19929;-79
2024/04/17 00:03:03;;;;;;;;;;;;;;;20.70;50.65;98269.94;5419004;26;19936;-79
2024/04/17 00:05:28;;;;;;;;;;;;;;;20.78;50.15;98257.81;5419270;26;20293;-79
2024/04/17 00:07:54;;;;;;;;;;;;;;;20.70;50.24;98253.03;5418810;26;19929;-79
2024/04/17 00:10:19;;;;;;;;;;;;;;;20.76;50.63;98244.69;5417255;26;19929;-80
2024/04/17 00:12:44;;;;;;;;;;;;;;;20.77;51.22;98240.13;5418961;26;20251;-80
2024/04/17 00:15:10;;;;;;;;;;;;;;;20.81;50.35;98225.09;5418941;26;19929;-79
2024/04/17 00:17:35;;;;;;;;;;;;;;;20.80;50.08;98207.38;5418775;26;19929;-78
2024/04/17 00:20:00;;;;;;;;;;;;;;;20.74;50.61;98203.91;5419422;26;19941;-80
2024/04/17 00:22:25;;;;;;;;;;;;;;;20.76;49.96;98192.91;5419295;26;20266;-80
2024/04/17 00:24:51;;;;;;;;;;;;;;;20.68;50.93;98201.53;5418763;26;19929;-79
2024/04/17 00:27:16;;;;;;;;;;;;;;;20.49;51.94;98185.28;5416995;26;19929;-78
2024/04/17 00:29:41;;;;;;;;;;;;;;;20.44;52.01;98190.66;5417092;26;19929;-79
2024/04/17 00:32:07;;;;;;;;;;;;;;;20.41;51.13;98165.22;5417020;26;19929;-79
2024/04/17 00:34:32;;;;;;;;;;;;;;;20.41;51.54;98162.53;5417379;26;19937;-79
2024/04/17 00:36:57;;;;;;;;;;;;;;;20.42;52.10;98156.09;5418696;26;19929;-79
2024/04/17 00:39:23;;;;;;;;;;;;;;;20.43;51.46;98154.22;5418813;26;19936;-79
2024/04/17 00:41:48;;;;;;;;;;;;;;;20.38;52.20;98160.38;5418534;26;20350;-78
2024/04/17 00:44:14;;;;;;;;;;;;;;;20.41;52.07;98167.09;5418822;26;20320;-80
2024/04/17 00:46:39;;;;;;;;;;;;;;;20.43;51.75;98167.63;5418751;26;19929;-80
2024/04/17 00:49:05;;;;;;;;;;;;;;;20.45;51.80;98168.94;5416979;26;19936;-80
2024/04/17 00:51:30;;;;;;;;;;;;;;;20.46;51.20;98183.16;5416383;26;19936;-80
2024/04/17 00:53:56;;;;;;;;;;;;;;;20.41;51.13;98161.72;5416650;26;20357;-79
2024/04/17 00:56:21;;;;;;;;;;;;;;;20.45;50.97;98176.19;5418277;26;19929;-79
2024/04/17 00:58:46;;;;;;;;;;;;;;;20.40;51.58;98160.13;5416714;26;20359;-80
2024/04/17 01:01:12;;;;;;;;;;;;;;;20.37;52.20;98155.28;5418472;26;20019;-79
2024/04/17 01:03:37;;;;;;;;;;;;;;;20.36;52.39;98162.53;5416470;26;20204;-79
2024/04/17 01:06:02;;;;;;;;;;;;;;;20.33;52.27;98159.59;5418707;26;19929;-79
2024/04/17 01:08:28;;;;;;;;;;;;;;;20.38;51.70;98156.88;5417957;26;20340;-80
2024/04/17 01:11:02;;;;;;;;;;;;;;;20.41;52.20;98149.13;5416128;26;19935;-79
2024/04/17 01:13:28;;;;;;;;;;;;;;;20.46;52.61;98145.63;5416231;26;19936;-79
2024/04/17 01:15:55;;;;;;;;;;;;;;;20.55;51.36;98138.59;5417709;26;19929;-80
2024/04/17 01:18:20;;;;;;;;;;;;;;;20.49;51.59;98127.09;5417695;26;19929;-79
2024/04/17 01:20:46;;;;;;;;;;;;;;;20.56;50.78;98114.19;5416420;26;19936;-79
2024/04/17 01:23:11;;;;;;;;;;;;;;;20.60;51.37;98115.22;5418370;26;19936;-80
2024/04/17 01:25:36;;;;;;;;;;;;;;;20.59;51.75;98110.94;5416359;26;19929;-78
2024/04/17 01:28:02;;;;;;;;;;;;;;;20.52;51.21;98101.59;5417872;26;20369;-80
2024/04/17 01:30:27;;;;;;;;;;;;;;;20.41;50.93;98092.03;5416214;26;19936;-79
2024/04/17 01:32:52;;;;;;;;;;;;;;;20.40;51.34;98071.66;5418675;26;19945;-80
2024/04/17 01:35:17;;;;;;;;;;;;;;;20.35;52.97;98068.97;5418369;26;19998;-79
2024/04/17 01:37:43;;;;;;;;;;;;;;;20.20;53.47;98064.50;5416398;26;20011;-80
2024/04/17 01:40:08;;;;;;;;;;;;;;;20.05;53.02;98059.19;5417895;26;20016;-80
2024/04/17 01:42:33;;;;;;;;;;;;;;;20.16;52.40;98045.50;5418096;26;19933;-80
2024/04/17 01:44:59;;;;;;;;;;;;;;;20.12;53.74;98049.81;5415883;26;19935;-80
2024/04/17 01:47:24;;;;;;;;;;;;;;;20.16;53.11;98064.25;5420872;26;19932;-80
2024/04/17 01:49:49;;;;;;;;;;;;;;;20.16;52.35;98060.78;5420744;26;19935;-81
2024/04/17 01:52:14;;;;;;;;;;;;;;;20.19;53.09;98061.03;5420837;26;20266;-78
2024/04/17 01:54:40;;;;;;;;;;;;;;;20.24;52.61;98071.72;5421212;26;19936;-80
2024/04/17 01:57:05;;;;;;;;;;;;;;;20.31;52.18;98068.72;5421007;26;19932;-80
2024/04/17 01:59:30;;;;;;;;;;;;;;;20.13;53.59;98075.53;5419080;26;19945;-80
2024/04/17 02:01:55;;;;;;;;;;;;;;;20.22;53.18;98071.19;5420719;26;19929;-78
2024/04/17 02:04:21;;;;;;;;;;;;;;;20.19;52.84;98068.25;5419169;26;20366;-80
2024/04/17 02:06:46;;;;;;;;;;;;;;;20.28;52.38;98063.91;5421089;26;19937;-78
2024/04/17 02:09:11;;;;;;;;;;;;;;;20.26;52.75;98069.56;5418950;26;19973;-81
2024/04/17 02:11:36;;;;;;;;;;;;;;;20.18;53.85;98072.81;5420522;26;19929;-80
2024/04/17 02:14:02;;;;;;;;;;;;;;;20.17;52.75;98071.22;5418504;26;20263;-80
2024/04/17 02:16:27;;;;;;;;;;;;;;;20.15;52.88;98077.94;5418444;26;19940;-79
2024/04/17 02:18:52;;;;;;;;;;;;;;;20.09;53.20;98085.19;5418953;26;19929;-81
2024/04/17 02:21:18;;;;;;;;;;;;;;;20.10;53.79;98089.47;5420528;26;20267;-80
2024/04/17 02:23:46;;;;;;;;;;;;;;;20.08;53.99;98090.81;5419006;26;19929;-79
2024/04/17 02:26:11;;;;;;;;;;;;;;;20.07;53.56;98086.53;5420553;26;20088;-79
2024/04/17 02:28:36;;;;;;;;;;;;;;;20.07;53.04;98089.22;5420485;26;19937;-78
2024/04/17 02:31:02;;;;;;;;;;;;;;;20.02;53.76;98100.72;5418588;26;19929;-80
2024/04/17 02:33:27;;;;;;;;;;;;;;;19.99;54.40;98095.91;5420236;26;19936;-78
2024/04/17 02:35:52;;;;;;;;;;;;;;;19.96;53.95;98093.78;5420533;26;20370;-80
2024/04/17 02:38:17;;;;;;;;;;;;;;;19.96;53.73;98093.78;5418576;26;19929;-80
2024/04/17 02:40:43;;;;;;;;;;;;;;;19.93;54.31;98091.66;5418559;26;19937;-79
2024/04/17 02:43:08;;;;;;;;;;;;;;;20.01;53.27;98091.09;5420165;26;19929;-79
2024/04/17 02:45:33;;;;;;;;;;;;;;;19.96;54.34;98104.50;5420443;26;19933;-79
2024/04/17 02:48:00;;;;;;;;;;;;;;;19.95;54.22;98114.41;5420470;26;19997;-80
2024/04/17 02:50:26;;;;;;;;;;;;;;;19.90;54.19;98110.97;5420275;26;19965;-80
2024/04/17 02:52:51;;;;;;;;;;;;;;;19.93;54.89;98110.41;5418564;26;19929;-79
2024/04/17 02:55:16;;;;;;;;;;;;;;;20.00;53.12;98100.19;5420343;26;19931;-80
2024/04/17 02:57:41;;;;;;;;;;;;;;;20.02;54.13;98098.06;5417049;26;19929;-81
2024/04/17 03:00:07;;;;;;;;;;;;;;;20.05;53.71;98097.50;5418472;26;19957;-78
2024/04/17 03:02:32;;;;;;;;;;;;;;;20.08;54.98;98106.91;5419998;26;19933;-79
2024/04/17 03:04:57;;;;;;;;;;;;;;;20.02;54.09;98110.66;5420175;26;19929;-79
2024/04/17 03:07:23;;;;;;;;;;;;;;;20.10;54.06;98110.09;5418509;26;19940;-80
2024/04/17 03:09:50;;;;;;;;;;;;;;;19.96;53.70;98125.94;5418038;26;19940;-80
2024/04/17 03:12:15;;;;;;;;;;;;;;;20.03;53.55;98112.25;5419689;26;20418;-79
2024/04/17 03:14:40;;;;;;;;;;;;;;;20.10;52.59;98113.59;5419842;26;19929;-80
2024/04/17 03:17:06;;;;;;;;;;;;;;;20.11;53.22;98127.78;5419609;26;19929;-78
2024/04/17 03:19:31;;;;;;;;;;;;;;;20.10;54.72;98129.66;5417906;26;19929;-80
2024/04/17 03:21:56;;;;;;;;;;;;;;;19.94;54.31;98139.59;5419748;26;19975;-80
2024/04/17 03:24:22;;;;;;;;;;;;;;;19.98;53.62;98145.22;5419722;26;19936;-80
2024/04/17 03:26:47;;;;;;;;;;;;;;;19.93;54.86;98153.28;5419593;26;19929;-78
2024/04/17 03:29:13;;;;;;;;;;;;;;;19.86;53.95;98152.75;5419807;26;21283;-80
2024/04/17 03:31:38;;;;;;;;;;;;;;;19.85;54.37;98151.16;5419883;26;19941;-80
2024/04/17 03:34:03;;;;;;;;;;;;;;;19.91;53.59;98158.91;5417607;26;19929;-79
2024/04/17 03:36:28;;;;;;;;;;;;;;;19.90;54.03;98156.50;5419523;26;19929;-80
2024/04/17 03:38:54;;;;;;;;;;;;;;;19.87;53.69;98154.34;5419546;26;19983;-79
2024/04/17 03:41:19;;;;;;;;;;;;;;;19.93;53.50;98161.31;5419583;26;20278;-80
2024/04/17 03:43:44;;;;;;;;;;;;;;;19.89;53.09;98157.56;5417861;26;19936;-80
2024/04/17 03:46:09;;;;;;;;;;;;;;;19.79;54.78;98162.94;5417950;26;19929;-80
2024/04/17 03:48:35;;;;;;;;;;;;;;;19.82;53.92;98157.06;5420037;26;19940;-78
2024/04/17 03:51:00;;;;;;;;;;;;;;;19.84;53.75;98160.25;5419501;26;20282;-80
2024/04/17 03:53:25;;;;;;;;;;;;;;;19.91;53.39;98156.22;5419536;26;19936;-79
2024/04/17 03:55:51;;;;;;;;;;;;;;;19.90;55.57;98169.88;5417582;26;19929;-80
2024/04/17 03:58:16;;;;;;;;;;;;;;;19.89;53.29;98170.97;5419259;26;20344;-80
2024/04/17 04:00:41;;;;;;;;;;;;;;;19.88;54.25;98164.81;5417313;26;19929;-79
2024/04/17 04:03:07;;;;;;;;;;;;;;;19.97;53.04;98162.38;5419344;26;19929;-79
2024/04/17 04:05:32;;;;;;;;;;;;;;;19.93;54.79;98161.31;5419452;26;19929;-78
2024/04/17 04:07:57;;;;;;;;;;;;;;;19.94;53.67;98150.31;5417589;26;20421;-80
2024/04/17 04:10:22;;;;;;;;;;;;;;;19.97;53.92;98149.78;5419412;26;19929;-79
2024/04/17 04:12:48;;;;;;;;;;;;;;;19.94;53.98;98146.84;5419109;26;19978;-80
2024/04/17 04:15:13;;;;;;;;;;;;;;;19.96;54.77;98128.63;5418789;26;19929;-79
2024/04/17 04:17:38;;;;;;;;;;;;;;;20.02;53.96;98127.53;5418485;26;19937;-78
2024/04/17 04:20:04;;;;;;;;;;;;;;;20.06;54.75;98146.53;5416780;26;19936;-80
2024/04/17 04:22:29;;;;;;;;;;;;;;;20.09;53.90;98120.03;5416967;26;20267;-78
2024/04/17 04:24:55;;;;;;;;;;;;;;;20.05;54.29;98118.94;5419141;26;19979;-80
2024/04/17 04:27:20;;;;;;;;;;;;;;;20.07;53.57;98122.16;5418946;26;19949;-80
2024/04/17 04:29:45;;;;;;;;;;;;;;;20.07;53.83;98122.16;5417093;26;20297;-79
2024/04/17 04:32:10;;;;;;;;;;;;;;;20.05;54.98;98129.66;5418512;26;19941;-79
2024/04/17 04:34:36;;;;;;;;;;;;;;;19.97;53.98;98119.50;5418533;26;20416;-80
2024/04/17 04:37:01;;;;;;;;;;;;;;;19.91;53.70;98113.38;5418841;26;20012;-79
2024/04/17 04:39:26;;;;;;;;;;;;;;;19.88;54.29;98107.75;5416486;26;20348;-79
2024/04/17 04:41:53;;;;;;;;;;;;;;;19.89;54.63;98110.16;5416610;26;19936;-79
2024/04/17 04:44:18;;;;;;;;;;;;;;;19.81;55.03;98100.00;5418572;26;19929;-79
2024/04/17 04:46:44;;;;;;;;;;;;;;;19.87;54.57;98100.78;5418782;26;19944;-80
2024/04/17 04:49:09;;;;;;;;;;;;;;;19.92;54.74;98095.41;5417765;26;19940;-80
2024/04/17 04:51:34;;;;;;;;;;;;;;;19.88;54.76;98097.84;5418682;26;19935;-80
2024/04/17 04:54:00;;;;;;;;;;;;;;;19.88;55.62;98102.38;5446386;26;19936;-80
2024/04/17 04:56:25;;;;;;;;;;;;;;;19.86;55.67;98099.19;5417829;26;19936;-80
2024/04/17 04:58:50;;;;;;;;;;;;;;;19.92;55.24;98095.41;5418119;26;20361;-79
2024/04/17 05:01:17;;;;;;;;;;;;;;;19.94;54.94;98098.63;5418025;26;20269;-79
2024/04/17 05:03:43;;;;;;;;;;;;;;;19.88;56.04;98113.09;5418255;26;19929;-78
2024/04/17 05:06:09;;;;;;;;;;;;;;;19.99;55.16;98117.34;5418242;26;19936;-80
2024/04/17 05:08:34;;;;;;;;;;;;;;;19.94;55.35;98112.81;5446081;26;19929;-78
2024/04/17 05:11:00;;;;;;;;;;;;;;;19.93;55.20;98102.38;5388193;26;20270;-80
2024/04/17 05:13:25;;;;;;;;;;;;;;;19.94;55.49;98103.97;5382361;26;19929;-79
2024/04/17 05:15:50;;;;;;;;;;;;;;;19.94;55.85;98128.88;5382136;26;19929;-79
2024/04/17 05:18:15;;;;;;;;;;;;;;;20.02;56.14;98121.38;5408176;26;19994;-80
2024/04/17 05:20:41;;;;;;;;;;;;;;;19.94;55.85;98120.84;5445239;26;19937;-80
2024/04/17 05:23:06;;;;;;;;;;;;;;;20.00;55.63;98135.03;5445952;26;19936;-80
2024/04/17 05:25:31;;;;;;;;;;;;;;;20.00;54.93;98127.78;5412466;26;20282;-80
2024/04/17 05:27:56;;;;;;;;;;;;;;;20.10;55.07;98127.00;5442413;26;19936;-80
2024/04/17 05:30:22;;;;;;;;;;;;;;;20.12;55.74;98124.03;5417553;26;20320;-79
2024/04/17 05:32:47;;;;;;;;;;;;;;;20.17;55.10;98130.16;5417969;26;19929;-78
2024/04/17 05:35:12;;;;;;;;;;;;;;;20.26;55.10;98133.88;5415859;26;20251;-80
2024/04/17 05:37:38;;;;;;;;;;;;;;;20.27;55.04;98132.00;5415995;26;20431;-80
2024/04/17 05:40:04;;;;;;;;;;;;;;;20.27;55.48;98148.09;5416184;26;19933;-78
2024/04/17 05:42:29;;;;;;;;;;;;;;;20.36;54.47;98134.91;5445018;26;19935;-80
2024/04/17 05:44:54;;;;;;;;;;;;;;;20.35;54.61;98130.63;5398754;26;20256;-78
2024/04/17 05:47:19;;;;;;;;;;;;;;;20.43;54.51;98152.31;5379915;26;19930;-78
2024/04/17 05:49:45;;;;;;;;;;;;;;;20.39;55.17;98140.56;5381880;26;19998;-78
2024/04/17 05:52:10;;;;;;;;;;;;;;;20.48;54.68;98132.72;5380288;26;20374;-79
2024/04/17 05:54:36;;;;;;;;;;;;;;;20.61;54.23;98140.16;5381575;26;19929;-79
2024/04/17 05:57:01;;;;;;;;;;;;;;;20.65;54.74;98135.84;5381738;26;19995;-79
2024/04/17 05:59:27;;;;;;;;;;;;;;;20.73;54.12;98150.56;5409028;26;19964;-78
2024/04/17 06:01:52;;;;;;;;;;;;;;;20.86;53.44;98133.88;5381510;26;19935;-80
2024/04/17 06:04:17;;;;;;;;;;;;;;;20.88;53.36;98129.03;5389865;26;19941;-80
2024/04/17 06:06:42;;;;;;;;;;;;;;;20.90;53.32;98132.22;5417274;26;19929;-78
2024/04/17 06:09:08;;;;;;;;;;;;;;;20.97;53.21;98135.41;5442137;26;19933;-78
2024/04/17 06:11:33;;;;;;;;;;;;;;;21.09;52.64;98133.16;5415127;26;19933;-78
2024/04/17 06:13:58;;;;;;;;;;;;;;;21.14;52.63;98143.84;5416830;26;19929;-80
2024/04/17 06:16:23;;;;;;;;;;;;;;;21.23;52.48;98139.50;5416266;26;19929;-78
2024/04/17 06:18:49;;;;;;;;;;;;;;;21.29;51.90;98142.16;5444776;26;19929;-80
2024/04/17 06:21:15;;;;;;;;;;;;;;;21.25;52.19;98136.53;5416716;26;20002;-77
2024/04/17 06:23:40;;;;;;;;;;;;;;;21.36;51.93;98139.94;5417617;26;19937;-80
2024/04/17 06:26:05;;;;;;;;;;;;;;;21.43;51.76;98138.53;5414176;26;19940;-80
2024/04/17 06:28:31;;;;;;;;;;;;;;;21.52;51.40;98119.91;5444299;26;20292;-78
2024/04/17 06:30:56;;;;;;;;;;;;;;;21.56;51.44;98116.41;5416890;26;19941;-79
2024/04/17 06:33:21;;;;;;;;;;;;;;;21.65;51.05;98118.47;5443219;26;20401;-78
2024/04/17 06:35:46;;;;;;;;;;;;;;;21.76;50.72;98114.59;5420610;26;19936;-81
2024/04/17 06:38:12;;;;;;;;;;;;;;;21.82;50.65;98108.88;5407781;26;19938;-79
2024/04/17 06:40:37;;;;;;;;;;;;;;;21.93;50.25;98111.44;5384699;26;19940;-79
2024/04/17 06:43:02;;;;;;;;;;;;;;;21.99;49.91;98097.66;5390381;26;20363;-80
2024/04/17 06:45:28;;;;;;;;;;;;;;;22.01;50.01;98087.44;5448131;26;19928;-80
2024/04/17 06:47:53;;;;;;;;;;;;;;;22.07;49.87;98088.19;5419820;26;19929;-80
2024/04/17 06:50:18;;;;;;;;;;;;;;;22.13;49.25;98078.97;5415092;26;19929;-80
2024/04/17 06:52:44;;;;;;;;;;;;;;;22.30;48.97;98073.13;5445296;26;19998;-80
2024/04/17 06:55:09;;;;;;;;;;;;;;;22.41;48.90;98077.28;5417763;26;19971;-80
2024/04/17 06:57:35;;;;;;;;;;;;;;;22.39;48.29;98076.78;5447766;26;19929;-79
2024/04/17 07:00:00;;;;;;;;;;;;;;;22.41;48.30;98075.41;5419766;26;19998;-80
2024/04/17 07:02:25;;;;;;;;;;;;;;;22.57;48.24;98070.59;5448016;26;19936;-80
2024/04/17 07:04:50;;;;;;;;;;;;;;;22.62;47.52;98062.44;5419658;26;19940;-80
2024/04/17 07:07:16;;;;;;;;;;;;;;;22.61;47.59;98060.03;5419307;26;19929;-79
2024/04/17 07:09:41;;;;;;;;;;;;;;;22.63;47.37;98061.34;5419319;26;20259;-79
2024/04/17 07:12:07;;;;;;;;;;;;;;;22.72;47.00;98073.03;5419643;26;19936;-80
2024/04/17 07:14:32;;;;;;;;;;;;;;;22.76;46.84;98057.13;5420070;26;19956;-80
2024/04/17 07:16:58;;;;;;;;;;;;;;;22.77;46.15;98051.44;5419356;26;20360;-80
2024/04/17 07:19:24;;;;;;;;;;;;;;;22.82;46.45;98053.28;5419523;26;19940;-80
2024/04/17 07:21:50;;;;;;;;;;;;;;;22.90;46.29;98071.44;5419391;26;19929;-80
2024/04/17 07:24:15;;;;;;;;;;;;;;;22.85;45.60;98065.34;5447844;26;19929;-81
2024/04/17 07:26:40;;;;;;;;;;;;;;;22.92;45.97;98071.16;5419262;26;19941;-80
2024/04/17 07:29:06;;;;;;;;;;;;;;;22.87;45.91;98082.00;5419301;26;19960;-80
2024/04/17 07:31:32;;;;;;;;;;;;;;;22.71;45.98;98062.56;5419435;26;19933;-80
2024/04/17 07:33:57;;;;;;;;;;;;;;;22.58;46.26;98060.63;5419526;26;20994;-80
2024/04/17 07:36:23;;;;;;;;;;;;;;;22.62;45.74;98059.75;5419164;26;19935;-80
2024/04/17 07:38:48;;;;;;;;;;;;;;;22.79;45.84;98049.25;5406893;26;19957;-80
2024/04/17 07:41:14;;;;;;;;;;;;;;;22.95;44.29;98049.84;5413591;26;19940;-79
2024/04/17 07:43:39;;;;;;;;;;;;;;;23.03;43.21;98030.31;5413697;26;19928;-81
2024/04/17 07:46:04;;;;;;;;;;;;;;;23.21;43.41;98039.44;5416189;26;19929;-81
2024/04/17 07:48:30;;;;;;;;;;;;;;;23.29;41.38;98038.75;5417417;26;19929;-80
2024/04/17 07:50:55;;;;;;;;;;;;;;;23.39;42.11;98030.50;5411724;26;20214;-79
2024/04/17 07:53:20;;;;;;;;;;;;;;;23.57;40.97;98033.44;5407422;26;19937;-80
2024/04/17 07:55:46;;;;;;;;;;;;;;;23.53;39.76;98035.09;5441263;26;19979;-80
2024/04/17 07:58:11;;;;;;;;;;;;;;;23.62;40.16;98017.97;5399195;26;20370;-81
2024/04/17 08:00:38;;;;;;;;;;;;;;;23.66;38.13;98005.47;5390455;26;19935;-78
2024/04/17 08:03:04;;;;;;;;;;;;;;;23.73;39.02;98023.94;5411648;26;20259;-80
2024/04/17 08:05:29;;;;;;;;;;;;;;;23.69;37.88;98017.56;5394922;26;19936;-78
2024/04/17 08:07:54;;;;;;;;;;;;;;;23.74;38.53;98010.16;5415788;26;20267;-78
2024/04/17 08:10:20;;;;;;;;;;;;;;;23.68;36.92;98032.94;5395508;26;19929;-79
2024/04/17 08:12:47;;;;;;;;;;;;;;;23.65;37.60;98020.06;5415012;26;19940;-80
2024/04/17 08:15:13;;;;;;;;;;;;;;;23.75;37.26;98040.59;5409661;26;19937;-79
2024/04/17 08:17:38;;;;;;;;;;;;;;;23.80;37.13;98024.38;5404167;26;20302;-78
2024/04/17 08:20:04;;;;;;;;;;;;;;;23.84;36.27;98021.88;5382619;26;20002;-79
2024/04/17 08:22:29;;;;;;;;;;;;;;;23.80;36.50;98000.09;5403347;26;19936;-80
2024/04/17 08:24:54;;;;;;;;;;;;;;;23.91;36.73;98008.78;5399574;26;19997;-80
2024/04/17 08:27:20;;;;;;;;;;;;;;;24.04;35.24;98013.34;5415454;26;19929;-80
2024/04/17 08:29:45;;;;;;;;;;;;;;;24.19;35.27;98013.00;5393571;26;20020;-79
2024/04/17 08:32:10;;;;;;;;;;;;;;;24.38;36.08;98010.19;5416210;26;19932;-78
2024/04/17 08:34:36;;;;;;;;;;;;;;;24.61;35.61;98008.31;5409855;26;19945;-80
2024/04/17 08:37:01;;;;;;;;;;;;;;;24.73;35.24;98027.44;5402971;26;20270;-79
2024/04/17 08:39:26;;;;;;;;;;;;;;;24.87;34.92;98017.38;5418392;26;19929;-79
2024/04/17 08:41:54;;;;;;;;;;;;;;;24.81;33.17;98028.63;5415600;26;19929;-78
2024/04/17 08:44:26;;;;;;;;;;;;;;;24.80;34.02;98003.53;5416730;26;19956;-78
2024/04/17 08:46:52;;;;;;;;;;;;;;;24.68;34.11;98014.09;5435921;26;20565;-78
2024/04/17 08:49:18;;;;;;;;;;;;;;;24.75;34.31;98013.66;5434130;26;20359;-79
2024/04/17 08:51:45;;;;;;;;;;;;;;;24.77;34.18;98006.84;5406472;26;19943;-79
2024/04/17 08:54:10;;;;;;;;;;;;;;;24.85;34.04;98019.59;5404328;26;19940;-77
2024/04/17 08:56:37;;;;;;;;;;;;;;;24.98;33.53;98001.75;5397193;26;19930;-79
2024/04/17 08:59:02;;;;;;;;;;;;;;;24.96;34.18;98009.34;5395107;26;19933;-78
2024/04/17 09:01:31;;;;;;;;;;;;;;;24.99;34.18;97993.34;5417918;26;19979;-78
2024/04/17 09:03:57;;;;;;;;;;;;;;;25.14;33.92;97996.75;5408755;26;20003;-79
2024/04/17 09:06:22;;;;;;;;;;;;;;;25.30;34.23;97974.44;5382997;26;19929;-78
2024/04/17 09:08:48;;;;;;;;;;;;;;;25.55;33.92;97974.84;5381866;26;19941;-80
2024/04/17 09:11:13;;;;;;;;;;;;;;;25.74;33.72;97975.38;5385760;26;19936;-78
2024/04/17 09:13:39;;;;;;;;;;;;;;;25.77;32.46;97982.88;5412406;26;19941;-79
2024/04/17 09:16:04;;;;;;;;;;;;;;;25.74;32.03;98001.63;5445906;26;19929;-80
2024/04/17 09:18:29;;;;;;;;;;;;;;;25.77;33.20;97966.66;5445850;26;19936;-79
2024/04/17 09:20:55;;;;;;;;;;;;;;;25.68;32.69;97956.94;5416101;26;19929;-78
2024/04/17 09:23:20;;;;;;;;;;;;;;;25.85;32.60;97960.47;5414885;26;19998;-77
2024/04/17 09:25:46;;;;;;;;;;;;;;;25.98;32.49;97950.59;5414909;26;19933;-80
2024/04/17 09:28:12;;;;;;;;;;;;;;;25.98;32.26;97951.41;5399811;26;19941;-79
2024/04/17 09:30:40;;;;;;;;;;;;;;;26.07;32.37;97935.22;5402803;26;19936;-79
2024/04/17 09:33:07;;;;;;;;;;;;;;;26.21;32.93;97943.16;5425210;26;20445;-79
2024/04/17 09:35:32;;;;;;;;;;;;;;;26.39;32.79;97947.47;5418597;26;19994;-81
2024/04/17 09:37:57;;;;;;;;;;;;;;;26.40;33.03;97930.13;5395108;26;19941;-80
2024/04/17 09:40:23;;;;;;;;;;;;;;;26.40;33.33;97927.41;5405816;26;19929;-80
2024/04/17 09:42:49;;;;;;;;;;;;;;;26.05;33.60;97923.91;5404602;26;19929;-80
2024/04/17 09:45:16;;;;;;;;;;;;;;;25.99;33.99;97922.44;5381556;26;19954;-80
2024/04/17 09:47:43;;;;;;;;;;;;;;;26.03;33.88;97919.94;5404635;26;19973;-81
2024/04/17 09:50:13;;;;;;;;;;;;;;;26.16;33.95;97924.38;5409161;26;19935;-78
2024/04/17 09:52:39;;;;;;;;;;;;;;;26.29;33.68;97923.41;5403329;26;19936;-78
2024/04/17 09:55:06;;;;;;;;;;;;;;;26.36;33.65;97918.34;5409968;26;20334;-78
2024/04/17 09:57:32;;;;;;;;;;;;;;;26.50;33.29;97927.06;5406744;26;19937;-79
2024/04/17 09:59:58;;;;;;;;;;;;;;;26.31;33.07;97923.91;5392463;26;19929;-78
2024/04/17 10:02:24;;;;;;;;;;;;;;;26.28;33.01;97930.75;5412376;26;19940;-80
2024/04/17 10:04:51;;;;;;;;;;;;;;;26.35;33.22;97921.38;5441430;26;19998;-79
2024/04/17 10:07:17;;;;;;;;;;;;;;;26.46;33.06;97926.13;5404019;26;19936;-79
2024/04/17 10:09:42;;;;;;;;;;;;;;;26.39;33.18;97919.63;5418086;26;19933;-79
2024/04/17 10:12:11;;;;;;;;;;;;;;;26.33;32.73;97913.56;5397846;26;20095;-80
2024/04/17 10:14:40;;;;;;;;;;;;;;;26.49;33.26;97892.22;5387096;26;19961;-79
2024/04/17 10:17:06;;;;;;;;;;;;;;;26.51;32.97;97898.91;5387069;26;19937;-79
2024/04/17 10:19:32;;;;;;;;;;;;;;;26.56;32.92;97903.34;5432690;26;19933;-79
2024/04/17 10:21:57;;;;;;;;;;;;;;;26.64;32.65;97921.47;5419143;26;19939;-80
2024/04/17 10:24:22;;;;;;;;;;;;;;;26.60;32.85;97888.03;5419865;26;19937;-80
2024/04/17 10:26:57;;;;;;;;;;;;;;;26.54;32.49;97892.03;5418054;26;19961;-80
2024/04/17 10:29:22;;;;;;;;;;;;;;;26.64;32.37;97882.78;5414179;26;19937;-78
2024/04/17 10:32:05;;;;;;;;;;;;;;;26.57;32.11;97911.13;5448059;26;19994;-79
2024/04/17 10:34:41;;;;;;;;;;;;;;;26.61;32.59;97886.94;5423830;26;20261;-80
2024/04/17 10:37:08;;;;;;;;;;;;;;;26.58;32.66;97910.03;5399863;26;20362;-79
2024/04/17 10:39:36;;;;;;;;;;;;;;;26.86;32.34;97891.50;5419771;26;19928;-79
2024/04/17 10:42:03;;;;;;;;;;;;;;;26.57;32.12;97861.63;5418092;26;19929;-80
2024/04/17 10:44:28;;;;;;;;;;;;;;;26.70;32.40;97863.31;5417815;26;19929;-80
2024/04/17 10:47:03;;;;;;;;;;;;;;;26.66;31.46;97858.88;5416574;26;20342;-79
2024/04/17 10:49:29;;;;;;;;;;;;;;;26.63;31.02;97871.16;5386415;26;20355;-78
2024/04/17 10:51:54;;;;;;;;;;;;;;;26.40;31.66;97867.88;5389308;26;19936;-79
2024/04/17 10:54:21;;;;;;;;;;;;;;;26.49;31.80;97875.97;5405666;26;19937;-79
2024/04/17 10:56:46;;;;;;;;;;;;;;;26.48;31.58;97853.53;5407813;26;19948;-80
2024/04/17 10:59:11;;;;;;;;;;;;;;;26.50;31.43;97845.09;5412096;26;19936;-79
2024/04/17 11:01:37;;;;;;;;;;;;;;;26.78;30.41;97851.69;5418215;26;20259;-80
2024/04/17 11:04:02;;;;;;;;;;;;;;;26.77;29.62;97871.78;5390299;26;19930;-79
2024/04/17 11:06:28;;;;;;;;;;;;;;;27.08;29.46;97874.22;5382464;26;19929;-79
2024/04/17 11:08:53;;;;;;;;;;;;;;;27.07;29.99;97852.88;5383674;26;20021;-78
2024/04/17 11:11:19;;;;;;;;;;;;;;;27.27;28.50;97857.53;5383272;26;19929;-77
2024/04/17 11:13:44;;;;;;;;;;;;;;;27.19;29.05;97844.81;5382707;26;19930;-79
2024/04/17 11:16:10;;;;;;;;;;;;;;;27.34;28.97;97840.75;5382059;26;20270;-78
2024/04/17 11:18:36;;;;;;;;;;;;;;;27.41;29.22;97838.31;5387356;26;20355;-78
2024/04/17 11:21:01;;;;;;;;;;;;;;;27.56;28.94;97828.81;5386084;26;19937;-77
2024/04/17 11:23:26;;;;;;;;;;;;;;;27.25;28.98;97793.94;5401773;26;20228;-78
2024/04/17 11:25:52;;;;;;;;;;;;;;;27.63;29.20;97829.13;5406053;26;19929;-79
2024/04/17 11:28:17;;;;;;;;;;;;;;;27.73;28.70;97834.94;5405549;26;20327;-78
2024/04/17 11:30:48;;;;;;;;;;;;;;;27.81;29.04;97833.28;5417826;26;20362;-78
2024/04/17 11:33:14;;;;;;;;;;;;;;;27.92;29.24;97845.28;5418836;26;20389;-79
2024/04/17 11:35:39;;;;;;;;;;;;;;;28.11;29.11;97847.50;5419277;26;19929;-79
2024/04/17 11:38:07;;;;;;;;;;;;;;;28.29;29.22;97821.84;5418625;26;19929;-80
2024/04/17 11:40:32;;;;;;;;;;;;;;;28.34;29.08;97835.19;5416705;26;20278;-77
2024/04/17 11:42:57;;;;;;;;;;;;;;;28.50;28.85;97827.19;5418660;26;19948;-79
2024/04/17 11:45:23;;;;;;;;;;;;;;;28.74;28.77;97819.06;5418877;26;19979;-79
2024/04/17 11:47:48;;;;;;;;;;;;;;;28.87;28.42;97819.91;5417081;26;19987;-78
2024/04/17 11:50:13;;;;;;;;;;;;;;;28.85;28.63;97819.44;5416827;26;19979;-79
2024/04/17 11:52:39;;;;;;;;;;;;;;;28.91;29.13;97820.81;5416640;26;19929;-79
2024/04/17 11:55:04;;;;;;;;;;;;;;;28.81;28.56;97826.66;5417247;26;19933;-78
2024/04/17 11:57:30;;;;;;;;;;;;;;;28.32;28.89;97798.66;5416631;26;19929;-78
2024/04/17 11:59:55;;;;;;;;;;;;;;;28.59;29.00;97805.38;5414254;26;21311;-79
2024/04/17 12:02:20;;;;;;;;;;;;;;;28.82;28.91;97811.16;5383939;26;20300;-79
2024/04/17 12:04:46;;;;;;;;;;;;;;;28.77;29.00;97806.75;5381267;26;19929;-77
2024/04/17 12:07:12;;;;;;;;;;;;;;;28.68;29.36;97806.84;5383262;26;19930;-78
2024/04/17 12:09:37;;;;;;;;;;;;;;;28.77;29.11;97796.66;5400500;26;20044;-78
2024/04/17 12:12:02;;;;;;;;;;;;;;;28.77;28.93;97799.38;5407718;26;19937;-80
2024/04/17 12:14:27;;;;;;;;;;;;;;;28.72;28.84;97785.25;5414248;26;19936;-77
2024/04/17 12:16:53;;;;;;;;;;;;;;;28.88;29.02;97794.31;5418571;26;19929;-78
2024/04/17 12:19:18;;;;;;;;;;;;;;;28.86;28.79;97785.72;5398511;26;19929;-79
2024/04/17 12:21:43;;;;;;;;;;;;;;;28.78;28.41;97795.53;5383091;26;19937;-78
2024/04/17 12:24:17;;;;;;;;;;;;;;;28.76;28.22;97791.56;5388339;26;19937;-79
2024/04/17 12:26:51;;;;;;;;;;;;;;;28.71;28.12;97795.31;5416067;26;19929;-78
2024/04/17 12:29:18;;;;;;;;;;;;;;;28.75;28.58;97790.78;5417245;26;20478;-79
2024/04/17 12:31:44;;;;;;;;;;;;;;;28.61;28.07;97787.63;5402598;26;19931;-80
2024/04/17 12:34:09;;;;;;;;;;;;;;;28.84;28.01;97808.91;5381061;26;20325;-77
2024/04/17 12:36:35;;;;;;;;;;;;;;;28.84;27.96;97779.84;5382919;26;20351;-78
2024/04/17 12:39:00;;;;;;;;;;;;;;;28.85;27.61;97783.34;5403189;26;20371;-78